createdAt,value
2019-04-04T00:01:57.902Z,17.50
2019-04-04T00:04:26.740Z,16.90
2019-04-04T00:06:57.699Z,17.30
2019-04-04T00:09:26.130Z,18.23
2019-04-04T00:11:54.942Z,17.48
2019-04-04T00:14:23.714Z,17.57
2019-04-04T00:16:52.521Z,16.62
2019-04-04T00:19:21.369Z,17.52
2019-04-04T00:21:50.136Z,17.00
2019-04-04T00:24:19.218Z,17.30
2019-04-04T00:26:48.076Z,16.82
2019-04-04T00:29:17.819Z,16.50
2019-04-04T00:31:49.518Z,18.15
2019-04-04T00:34:17.311Z,17.45
2019-04-04T00:36:46.092Z,18.10
2019-04-04T00:39:15.013Z,16.12
2019-04-04T00:41:44.942Z,18.30
2019-04-04T00:44:14.351Z,18.60
2019-04-04T00:46:43.122Z,17.20
2019-04-04T00:49:12.955Z,17.60
2019-04-04T00:51:41.735Z,18.25
2019-04-04T00:54:12.105Z,18.92
2019-04-04T00:56:41.098Z,18.95
2019-04-04T00:59:09.894Z,18.27
2019-04-04T01:01:38.691Z,18.85
2019-04-04T01:04:07.507Z,18.60
2019-04-04T01:06:36.286Z,18.57
2019-04-04T01:09:11.246Z,19.37
2019-04-04T01:11:37.170Z,18.90
2019-04-04T01:14:06.088Z,19.23
2019-04-04T01:16:34.969Z,18.12
2019-04-04T01:19:03.871Z,18.20
2019-04-04T01:21:32.717Z,18.50
2019-04-04T01:24:01.517Z,18.20
2019-04-04T01:26:30.282Z,19.42
2019-04-04T01:28:59.120Z,18.98
2019-04-04T01:31:27.907Z,18.10
2019-04-04T01:33:56.678Z,19.52
2019-04-04T01:36:25.964Z,18.95
2019-04-04T01:38:55.003Z,18.98
2019-04-04T01:41:23.942Z,18.57
2019-04-04T01:44:04.572Z,18.77
2019-04-04T01:46:23.334Z,17.90
2019-04-04T01:48:52.240Z,18.80
2019-04-04T01:51:21.030Z,18.20
2019-04-04T01:53:49.924Z,17.42
2019-04-04T01:56:18.807Z,18.92
2019-04-04T01:58:47.735Z,18.65
2019-04-04T02:01:17.063Z,18.10
2019-04-04T02:03:45.988Z,18.35
2019-04-04T02:06:14.878Z,18.87
2019-04-04T02:08:43.673Z,19.62
2019-04-04T02:11:12.505Z,18.27
2019-04-04T02:13:41.553Z,19.70
2019-04-04T02:16:10.444Z,18.62
2019-04-04T02:18:39.316Z,20.45
2019-04-04T02:21:08.186Z,19.07
2019-04-04T02:23:37.108Z,18.90
2019-04-04T02:26:05.911Z,18.67
2019-04-04T02:28:34.784Z,20.25
2019-04-04T02:31:05.287Z,18.73
2019-04-04T02:33:34.056Z,19.20
2019-04-04T02:36:02.914Z,19.48
2019-04-04T02:38:31.910Z,19.80
2019-04-04T02:41:00.732Z,19.07
2019-04-04T02:43:29.541Z,18.95
2019-04-04T02:45:58.370Z,19.48
2019-04-04T02:48:27.159Z,20.32
2019-04-04T02:50:56.073Z,20.57
2019-04-04T02:53:24.915Z,22.13
2019-04-04T02:55:53.761Z,20.85
2019-04-04T02:58:22.812Z,20.23
2019-04-04T03:00:51.605Z,20.02
2019-04-04T03:03:20.627Z,20.17
2019-04-04T03:05:51.916Z,20.50
2019-04-04T03:08:20.135Z,19.95
2019-04-04T03:10:49.456Z,19.65
2019-04-04T03:13:18.632Z,19.40
2019-04-04T03:15:48.289Z,21.20
2019-04-04T03:18:17.241Z,20.43
2019-04-04T03:20:49.228Z,18.70
2019-04-04T03:23:16.540Z,19.07
2019-04-04T03:25:47.300Z,20.48
2019-04-04T03:28:16.000Z,19.60
2019-04-04T03:31:04.284Z,19.25
2019-04-04T03:33:33.385Z,20.08
2019-04-04T03:36:02.281Z,20.05
2019-04-04T03:38:31.161Z,19.73
2019-04-04T03:41:00.227Z,20.20
2019-04-04T03:43:29.124Z,20.27
2019-04-04T03:46:01.396Z,20.75
2019-04-04T03:48:28.598Z,20.82
2019-04-04T03:50:57.897Z,19.98
2019-04-04T03:53:28.209Z,19.90
2019-04-04T03:55:59.930Z,21.25
2019-04-04T03:58:28.178Z,20.62
2019-04-04T04:00:57.785Z,21.10
2019-04-04T04:03:26.682Z,21.37
2019-04-04T04:05:55.480Z,21.40
2019-04-04T04:08:24.339Z,21.55
2019-04-04T04:10:53.172Z,21.55
2019-04-04T04:13:22.102Z,21.05
2019-04-04T04:15:51.036Z,21.65
2019-04-04T04:18:21.361Z,21.33
2019-04-04T04:20:50.623Z,20.95
2019-04-04T04:23:23.015Z,20.97
2019-04-04T04:25:50.162Z,20.30
2019-04-04T04:28:20.176Z,21.40
2019-04-04T04:30:49.478Z,21.90
2019-04-04T04:33:18.483Z,21.70
2019-04-04T04:35:47.465Z,21.02
2019-04-04T04:38:16.464Z,21.62
2019-04-04T04:40:47.321Z,20.62
2019-04-04T04:43:16.075Z,20.70
2019-04-04T04:45:45.249Z,21.25
2019-04-04T04:48:14.282Z,20.88
2019-04-04T04:50:43.225Z,20.35
2019-04-04T04:53:12.216Z,20.77
2019-04-04T04:55:41.247Z,21.70
2019-04-04T04:58:11.104Z,19.90
2019-04-04T05:00:40.293Z,20.23
2019-04-04T05:03:09.345Z,20.88
2019-04-04T05:05:38.168Z,20.68
2019-04-04T05:08:09.682Z,21.37
2019-04-04T05:10:37.467Z,20.37
2019-04-04T05:13:06.285Z,22.75
2019-04-04T05:15:35.048Z,20.62
2019-04-04T05:18:03.958Z,21.70
2019-04-04T05:20:32.795Z,20.80
2019-04-04T05:23:01.627Z,19.87
2019-04-04T05:25:31.264Z,19.80
2019-04-04T05:28:00.737Z,19.80
2019-04-04T05:30:29.763Z,21.12
2019-04-04T05:32:58.641Z,22.32
2019-04-04T05:35:27.603Z,20.37
2019-04-04T05:37:56.498Z,20.05
2019-04-04T05:40:25.526Z,22.67
2019-04-04T05:42:54.383Z,20.88
2019-04-04T05:45:23.225Z,22.30
2019-04-04T05:48:00.823Z,22.98
2019-04-04T05:50:29.666Z,22.50
2019-04-04T05:52:58.679Z,22.22
2019-04-04T05:55:27.581Z,24.40
2019-04-04T05:57:56.500Z,21.62
2019-04-04T06:00:27.297Z,26.17
2019-04-04T06:02:56.122Z,23.35
2019-04-04T06:05:26.996Z,23.02
2019-04-04T06:07:55.392Z,22.43
2019-04-04T06:13:07.021Z,21.15
2019-04-04T06:15:35.951Z,21.23
2019-04-04T06:18:04.798Z,22.47
2019-04-04T06:20:33.610Z,21.87
2019-04-04T06:23:02.473Z,21.00
2019-04-04T06:25:34.734Z,22.75
2019-04-04T06:28:01.990Z,21.80
2019-04-04T06:30:42.637Z,23.60
2019-04-04T06:33:03.935Z,22.07
2019-04-04T06:35:32.166Z,23.30
2019-04-04T06:38:01.091Z,21.25
2019-04-04T06:40:30.296Z,21.07
2019-04-04T06:42:59.906Z,21.02
2019-04-04T06:45:29.827Z,25.10
2019-04-04T06:47:59.035Z,26.30
2019-04-04T06:50:27.884Z,21.57
2019-04-04T06:52:56.872Z,20.88
2019-04-04T06:55:28.445Z,20.45
2019-04-04T06:57:56.587Z,19.60
2019-04-04T07:00:25.491Z,20.60
2019-04-04T07:02:56.106Z,18.98
2019-04-04T07:05:24.870Z,17.83
2019-04-04T07:07:53.654Z,18.60
2019-04-04T07:10:22.595Z,18.55
2019-04-04T07:12:51.500Z,20.40
2019-04-04T07:15:20.371Z,20.25
2019-04-04T07:17:49.226Z,18.65
2019-04-04T07:20:18.264Z,18.90
2019-04-04T07:22:47.154Z,19.50
2019-04-04T07:25:15.979Z,18.75
2019-04-04T07:27:45.341Z,18.52
2019-04-04T07:30:15.607Z,18.20
2019-04-04T07:32:44.722Z,19.12
2019-04-04T07:35:16.804Z,18.77
2019-04-04T07:37:44.418Z,17.52
2019-04-04T07:40:13.676Z,18.35
2019-04-04T07:42:42.523Z,18.65
2019-04-04T07:45:14.266Z,19.10
2019-04-04T07:47:42.293Z,17.00
2019-04-04T07:50:11.276Z,17.60
2019-04-04T07:52:40.271Z,17.95
2019-04-04T07:55:10.827Z,17.20
2019-04-04T07:57:39.877Z,16.52
2019-04-04T08:00:09.569Z,17.30
2019-04-04T08:02:38.382Z,16.27
2019-04-04T08:05:07.351Z,19.48
2019-04-04T08:07:36.230Z,17.05
2019-04-04T08:10:05.635Z,17.95
2019-04-04T08:12:34.445Z,16.10
2019-04-04T08:15:03.380Z,16.15
2019-04-04T08:17:32.503Z,16.90
2019-04-04T08:20:01.333Z,16.50
2019-04-04T08:22:30.286Z,16.90
2019-04-04T08:24:59.194Z,16.02
2019-04-04T08:27:28.058Z,16.07
2019-04-04T08:29:57.019Z,16.40
2019-04-04T08:32:25.982Z,14.98
2019-04-04T08:34:54.796Z,14.55
2019-04-04T08:37:23.905Z,16.75
2019-04-04T08:39:52.750Z,15.68
2019-04-04T08:42:21.601Z,15.68
2019-04-04T08:44:50.404Z,15.13
2019-04-04T08:47:19.214Z,19.87
2019-04-04T08:49:48.029Z,17.02
2019-04-04T08:52:20.536Z,15.13
2019-04-04T08:54:47.452Z,14.20
2019-04-04T08:57:16.368Z,14.40
2019-04-04T08:59:45.182Z,14.20
2019-04-04T09:02:14.035Z,12.70
2019-04-04T09:04:42.920Z,14.63
2019-04-04T09:07:11.693Z,13.30
2019-04-04T09:09:40.561Z,13.00
2019-04-04T09:12:09.382Z,14.47
2019-04-04T09:14:40.970Z,13.60
2019-04-04T09:17:08.928Z,13.60
2019-04-04T09:19:37.737Z,14.03
2019-04-04T09:22:06.741Z,13.25
2019-04-04T09:24:36.136Z,13.05
2019-04-04T09:27:05.412Z,13.55
2019-04-04T09:29:34.218Z,13.27
2019-04-04T09:32:03.110Z,13.10
2019-04-04T09:34:31.847Z,13.00
2019-04-04T09:37:00.723Z,13.40
2019-04-04T09:39:29.512Z,13.45
2019-04-04T09:41:58.380Z,13.47
2019-04-04T09:44:27.232Z,13.05
2019-04-04T09:47:05.272Z,13.58
2019-04-04T09:49:26.692Z,13.00
2019-04-04T09:51:55.521Z,14.53
2019-04-04T09:54:24.379Z,13.27
2019-04-04T09:56:53.269Z,12.18
2019-04-04T09:59:22.144Z,11.73
2019-04-04T10:01:51.056Z,12.60
2019-04-04T10:04:19.916Z,12.45
2019-04-04T10:06:48.835Z,12.90
2019-04-04T10:09:17.737Z,12.43
2019-04-04T10:11:46.631Z,11.40
2019-04-04T10:14:15.535Z,11.63
2019-04-04T10:16:44.447Z,11.95
2019-04-04T10:19:13.330Z,10.90
2019-04-04T10:21:42.131Z,11.90
2019-04-04T10:24:11.577Z,12.03
2019-04-04T10:26:40.389Z,11.35
2019-04-04T10:29:09.268Z,12.70
2019-04-04T10:31:38.240Z,12.20
2019-04-04T10:34:07.227Z,11.28
2019-04-04T10:36:36.065Z,10.40
2019-04-04T10:39:09.116Z,9.95
2019-04-04T10:41:37.906Z,10.00
2019-04-04T10:44:06.745Z,9.68
2019-04-04T10:46:35.579Z,10.18
2019-04-04T10:49:04.604Z,9.70
2019-04-04T10:51:33.479Z,9.48
2019-04-04T10:54:02.359Z,10.00
2019-04-04T10:56:31.147Z,9.60
2019-04-04T10:58:59.978Z,9.83
2019-04-04T11:01:28.788Z,9.67
2019-04-04T11:03:57.614Z,9.90
2019-04-04T11:06:26.672Z,8.53
2019-04-04T11:08:55.437Z,9.27
2019-04-04T11:11:24.220Z,8.80
2019-04-04T11:13:53.062Z,9.05
2019-04-04T11:16:30.028Z,9.30
2019-04-04T11:18:52.469Z,9.70
2019-04-04T11:21:21.263Z,9.80
2019-04-04T11:23:50.080Z,9.10
2019-04-04T11:26:18.996Z,8.60
2019-04-04T11:28:47.760Z,8.78
2019-04-04T11:31:16.707Z,8.97
2019-04-04T11:33:45.626Z,8.88
2019-04-04T11:36:14.410Z,9.30
2019-04-04T11:38:44.245Z,8.50
2019-04-04T11:41:13.357Z,9.05
2019-04-04T11:43:42.154Z,7.80
2019-04-04T11:46:10.948Z,8.58
2019-04-04T11:48:39.854Z,9.08
2019-04-04T11:51:08.798Z,9.70
2019-04-04T11:53:37.595Z,8.20
2019-04-04T11:56:06.622Z,8.85
2019-04-04T11:58:35.448Z,7.72
2019-04-04T12:01:09.324Z,10.50
2019-04-04T12:03:38.221Z,7.80
2019-04-04T12:06:06.979Z,8.10
2019-04-04T12:08:35.798Z,9.20
2019-04-04T12:11:04.806Z,8.70
2019-04-04T12:13:33.623Z,8.50
2019-04-04T12:16:02.525Z,8.27
2019-04-04T12:18:31.382Z,7.65
2019-04-04T12:21:00.338Z,7.62
2019-04-04T12:23:29.211Z,7.70
2019-04-04T12:25:57.978Z,7.28
2019-04-04T12:28:27.034Z,6.60
2019-04-04T12:30:55.877Z,7.80
2019-04-04T12:33:24.824Z,8.08
2019-04-04T12:35:53.664Z,7.30
2019-04-04T12:38:22.545Z,7.83
2019-04-04T12:40:51.543Z,7.85
2019-04-04T12:43:20.583Z,7.40
2019-04-04T12:45:52.818Z,7.22
2019-04-04T12:48:21.826Z,7.30
2019-04-04T12:50:50.641Z,7.50
2019-04-04T12:53:19.544Z,7.40
2019-04-04T12:55:48.538Z,7.50
2019-04-04T12:58:17.463Z,7.60
2019-04-04T13:00:46.370Z,8.58
2019-04-04T13:03:15.199Z,7.50
2019-04-04T13:05:44.087Z,7.40
2019-04-04T13:08:13.026Z,7.95
2019-04-04T13:10:41.835Z,7.60
2019-04-04T13:13:10.725Z,8.90
2019-04-04T13:15:39.554Z,8.60
2019-04-04T13:18:08.469Z,7.90
2019-04-04T13:20:37.437Z,8.60
2019-04-04T13:23:06.356Z,8.65
2019-04-04T13:25:35.175Z,8.50
2019-04-04T13:28:04.089Z,8.25
2019-04-04T13:30:33.084Z,8.13
2019-04-04T13:33:01.978Z,8.43
2019-04-04T13:35:30.750Z,7.33
2019-04-04T13:37:59.705Z,8.25
2019-04-04T13:40:28.594Z,8.67
2019-04-04T13:42:57.408Z,9.10
2019-04-04T13:45:26.188Z,9.05
2019-04-04T13:47:55.015Z,8.50
2019-04-04T13:50:23.795Z,7.60
2019-04-04T13:52:52.572Z,7.60
2019-04-04T13:55:21.388Z,7.25
2019-04-04T13:57:50.256Z,7.62
2019-04-04T14:00:19.353Z,8.23
2019-04-04T14:02:48.368Z,8.20
2019-04-04T14:05:17.509Z,8.00
2019-04-04T14:07:46.415Z,7.40
2019-04-04T14:10:18.637Z,8.40
2019-04-04T14:12:47.484Z,7.90
2019-04-04T14:15:16.675Z,7.50
2019-04-04T14:17:45.676Z,7.15
2019-04-04T14:20:14.784Z,7.53
2019-04-04T14:22:43.786Z,7.60
2019-04-04T14:25:12.735Z,7.40
2019-04-04T14:27:41.656Z,8.08
2019-04-04T14:30:11.528Z,7.83
2019-04-04T14:32:40.460Z,7.60
2019-04-04T14:35:09.927Z,7.03
2019-04-04T14:37:38.950Z,7.75
2019-04-04T14:40:08.525Z,7.65
2019-04-04T14:42:37.425Z,6.85
2019-04-04T14:45:07.152Z,6.75
2019-04-04T14:47:36.641Z,7.22
2019-04-04T14:50:06.016Z,6.75
2019-04-04T14:52:34.868Z,6.28
2019-04-04T14:55:03.956Z,6.90
2019-04-04T14:57:32.836Z,6.60
2019-04-04T15:00:01.652Z,7.50
2019-04-04T15:02:30.618Z,7.07
2019-04-04T15:04:59.527Z,7.10
2019-04-04T15:07:28.449Z,7.72
2019-04-04T15:09:57.423Z,7.12
2019-04-04T15:12:26.246Z,7.85
2019-04-04T15:14:55.174Z,8.03
2019-04-04T15:17:24.154Z,7.10
2019-04-04T15:19:52.994Z,8.20
2019-04-04T15:22:21.794Z,8.53
2019-04-04T15:24:50.707Z,7.90
2019-04-04T15:27:19.660Z,6.85
2019-04-04T15:29:48.615Z,7.80
2019-04-04T15:32:17.778Z,7.83
2019-04-04T15:34:46.619Z,6.85
2019-04-04T15:37:15.685Z,6.97
2019-04-04T15:39:44.530Z,7.58
2019-04-04T15:42:13.411Z,6.90
2019-04-04T15:44:42.259Z,6.47
2019-04-04T15:47:11.409Z,7.17
2019-04-04T15:49:40.263Z,7.70
2019-04-04T15:52:09.302Z,7.62
2019-04-04T15:54:38.144Z,7.70
2019-04-04T15:57:07.265Z,7.08
2019-04-04T15:59:36.327Z,7.15
2019-04-04T16:02:05.268Z,7.00
2019-04-04T16:04:35.565Z,7.85
2019-04-04T16:07:05.694Z,6.80
2019-04-04T16:09:34.727Z,7.40
2019-04-04T16:12:03.885Z,6.67
2019-04-04T16:14:36.121Z,6.20
2019-04-04T16:17:05.902Z,6.92
2019-04-04T16:19:35.261Z,6.72
2019-04-04T16:22:04.724Z,7.35
2019-04-04T16:24:33.861Z,7.55
2019-04-04T16:27:09.137Z,7.25
2019-04-04T16:29:38.755Z,7.35
2019-04-04T16:32:10.016Z,6.90
2019-04-04T16:34:41.935Z,7.30
2019-04-04T16:37:12.797Z,8.03
2019-04-04T16:39:41.721Z,7.55
2019-04-04T16:42:10.753Z,6.40
2019-04-04T16:44:39.783Z,7.53
2019-04-04T16:47:08.588Z,7.50
2019-04-04T16:49:38.382Z,7.97
2019-04-04T16:52:07.501Z,7.20
2019-04-04T16:54:36.448Z,7.42
2019-04-04T16:57:05.449Z,7.10
2019-04-04T16:59:34.331Z,7.40
2019-04-04T17:02:03.112Z,7.10
2019-04-04T17:04:31.989Z,8.13
2019-04-04T17:07:01.063Z,7.70
2019-04-04T17:09:30.092Z,8.85
2019-04-04T17:11:59.053Z,8.55
2019-04-04T17:14:28.013Z,9.83
2019-04-04T17:16:56.989Z,10.00
2019-04-04T17:19:25.827Z,8.05
2019-04-04T17:21:57.375Z,12.47
2019-04-04T17:24:25.423Z,9.80
2019-04-04T17:26:57.262Z,8.95
2019-04-04T17:29:25.423Z,9.33
2019-04-04T17:31:54.227Z,17.23
2019-04-04T17:34:26.302Z,9.47
2019-04-04T17:36:56.368Z,12.03
2019-04-04T17:39:25.700Z,8.70
2019-04-04T17:41:54.563Z,9.10
2019-04-04T17:44:24.016Z,9.00
2019-04-04T17:46:53.075Z,9.58
2019-04-04T17:49:22.168Z,17.75
2019-04-04T17:51:51.372Z,10.20
2019-04-04T17:54:20.301Z,9.80
2019-04-04T17:56:49.263Z,10.25
2019-04-04T17:59:18.581Z,10.60
2019-04-04T18:01:47.512Z,10.03
2019-04-04T18:04:16.629Z,10.45
2019-04-04T18:06:45.520Z,10.88
2019-04-04T18:09:14.645Z,10.50
2019-04-04T18:11:43.631Z,12.10
2019-04-04T18:14:12.734Z,13.10
2019-04-04T18:16:41.809Z,12.15
2019-04-04T18:19:11.042Z,12.70
2019-04-04T18:21:40.007Z,12.80
2019-04-04T18:24:09.121Z,12.40
2019-04-04T18:26:38.364Z,13.05
2019-04-04T18:29:07.284Z,13.90
2019-04-04T18:31:36.142Z,13.95
2019-04-04T18:34:07.535Z,13.22
2019-04-04T18:36:35.980Z,13.60
2019-04-04T18:39:07.272Z,13.72
2019-04-04T18:41:36.160Z,14.58
2019-04-04T18:44:05.359Z,14.63
2019-04-04T18:46:34.220Z,14.60
2019-04-04T18:49:03.023Z,15.15
2019-04-04T18:51:32.017Z,14.28
2019-04-04T18:54:00.951Z,20.60
2019-04-04T18:56:29.927Z,17.95
2019-04-04T18:58:58.868Z,16.40
2019-04-04T19:01:28.049Z,26.05
2019-04-04T19:03:56.945Z,21.45
2019-04-04T19:06:26.022Z,19.20
2019-04-04T19:08:54.817Z,17.73
2019-04-04T19:11:23.664Z,16.05
2019-04-04T19:13:52.492Z,16.32
2019-04-04T19:16:21.525Z,29.35
2019-04-04T19:18:50.481Z,16.80
2019-04-04T19:21:19.622Z,16.20
2019-04-04T19:23:49.704Z,20.92
2019-04-04T19:26:18.740Z,17.42
2019-04-04T19:28:47.709Z,15.75
2019-04-04T19:31:16.638Z,16.35
2019-04-04T19:33:45.483Z,15.98
2019-04-04T19:36:14.464Z,16.40
2019-04-04T19:38:43.609Z,13.58
2019-04-04T19:41:12.612Z,13.40
2019-04-04T19:43:41.680Z,12.53
2019-04-04T19:46:10.632Z,13.22
2019-04-04T19:48:39.540Z,12.50
2019-04-04T19:51:08.522Z,12.88
2019-04-04T19:53:37.597Z,13.80
2019-04-04T19:56:06.630Z,14.75
2019-04-04T19:58:35.527Z,24.55
2019-04-04T20:01:05.364Z,13.13
2019-04-04T20:03:34.439Z,12.40
2019-04-04T20:06:03.399Z,12.23
2019-04-04T20:08:32.237Z,11.73
2019-04-04T20:11:02.525Z,12.25
2019-04-04T20:13:31.717Z,11.35
2019-04-04T20:16:01.261Z,11.20
2019-04-04T20:18:30.162Z,11.05
2019-04-04T20:20:59.938Z,11.63
2019-04-04T20:23:28.821Z,12.70
2019-04-04T20:25:57.697Z,12.45
2019-04-04T20:28:27.807Z,10.80
2019-04-04T20:30:56.778Z,12.90
2019-04-04T20:33:26.222Z,12.58
2019-04-04T20:35:55.190Z,12.93
2019-04-04T20:38:24.120Z,12.33
2019-04-04T20:40:53.000Z,13.13
2019-04-04T20:43:22.003Z,12.50
2019-04-04T20:45:50.831Z,11.70
2019-04-04T20:48:19.661Z,12.33
2019-04-04T20:50:48.453Z,12.70
2019-04-04T20:53:17.387Z,12.30
2019-04-04T20:55:46.292Z,12.78
2019-04-04T20:58:15.188Z,15.43
2019-04-04T21:00:44.205Z,12.97
2019-04-04T21:03:13.216Z,12.05
2019-04-04T21:05:42.136Z,12.78
2019-04-04T21:08:11.029Z,12.70
2019-04-04T21:10:39.816Z,12.68
2019-04-04T21:13:08.658Z,13.58
2019-04-04T21:15:37.535Z,13.38
2019-04-04T21:18:06.409Z,13.38
2019-04-04T21:20:35.231Z,13.60
2019-04-04T21:23:04.541Z,13.32
2019-04-04T21:25:33.513Z,13.00
2019-04-04T21:28:02.429Z,13.78
2019-04-04T21:30:31.469Z,12.33
2019-04-04T21:33:00.482Z,13.60
2019-04-04T21:35:29.302Z,13.45
2019-04-04T21:37:58.267Z,13.00
2019-04-04T21:40:27.124Z,15.40
2019-04-04T21:42:58.125Z,14.60
2019-04-04T21:45:26.993Z,13.88
2019-04-04T21:47:55.875Z,14.30
2019-04-04T21:50:24.945Z,12.95
2019-04-04T21:52:53.764Z,13.72
2019-04-04T21:55:22.764Z,14.40
2019-04-04T21:57:51.665Z,14.90
2019-04-04T22:00:21.513Z,15.15
2019-04-04T22:02:50.430Z,15.18
2019-04-04T22:05:19.322Z,14.60
2019-04-04T22:07:48.581Z,14.25
2019-04-04T22:10:17.662Z,15.03
2019-04-04T22:12:46.718Z,15.08
2019-04-04T22:15:15.771Z,14.70
2019-04-04T22:17:44.625Z,13.68
2019-04-04T22:20:14.929Z,14.78
2019-04-04T22:22:43.739Z,15.30
2019-04-04T22:25:12.596Z,14.03
2019-04-04T22:27:41.564Z,15.38
2019-04-04T22:30:11.273Z,14.28
2019-04-04T22:32:40.188Z,13.55
2019-04-04T22:35:09.712Z,13.60
2019-04-04T22:37:38.496Z,13.98
2019-04-04T22:40:08.320Z,13.63
2019-04-04T22:42:37.113Z,13.62
2019-04-04T22:45:06.495Z,13.75
2019-04-04T22:47:35.339Z,15.30
2019-04-04T22:50:04.309Z,18.37
2019-04-04T22:52:33.158Z,14.20
2019-04-04T22:55:02.095Z,13.58
2019-04-04T22:57:30.996Z,14.93
2019-04-04T22:59:59.966Z,14.18
2019-04-04T23:02:28.843Z,13.78
2019-04-04T23:04:57.677Z,14.20
2019-04-04T23:07:26.556Z,13.70
2019-04-04T23:09:55.370Z,13.32
2019-04-04T23:12:24.281Z,14.18
2019-04-04T23:14:53.127Z,14.58
2019-04-04T23:17:22.091Z,15.40
2019-04-04T23:19:50.945Z,14.95
2019-04-04T23:22:19.827Z,15.55
2019-04-04T23:24:48.657Z,13.78
2019-04-04T23:27:17.587Z,14.00
2019-04-04T23:29:46.440Z,13.80
2019-04-04T23:32:15.360Z,13.78
2019-04-04T23:34:44.219Z,14.15
2019-04-04T23:37:13.011Z,14.28
2019-04-04T23:39:41.824Z,14.40
2019-04-04T23:42:10.652Z,14.05
2019-04-04T23:44:39.531Z,14.83
2019-04-04T23:47:08.460Z,14.83
2019-04-04T23:49:37.675Z,14.13
2019-04-04T23:52:06.466Z,14.18
2019-04-04T23:54:35.702Z,14.13
2019-04-04T23:57:05.411Z,14.05
2019-04-04T23:59:34.313Z,14.45
